createdAt,value
2019-05-13T00:00:00.703Z,0.00
2019-05-13T00:01:00.671Z,0.00
2019-05-13T00:02:00.640Z,0.00
2019-05-13T00:03:00.611Z,0.00
2019-05-13T00:04:00.581Z,0.00
2019-05-13T00:05:00.552Z,0.00
2019-05-13T00:06:00.520Z,0.00
2019-05-13T00:07:00.490Z,0.00
2019-05-13T00:08:00.460Z,0.00
2019-05-13T00:09:00.431Z,0.00
2019-05-13T00:10:00.398Z,0.00
2019-05-13T00:11:00.369Z,0.00
2019-05-13T00:12:00.354Z,0.00
2019-05-13T00:13:00.310Z,0.00
2019-05-13T00:14:00.277Z,0.00
2019-05-13T00:15:00.248Z,0.00
2019-05-13T00:16:00.217Z,0.00
2019-05-13T00:17:00.188Z,0.00
2019-05-13T00:18:00.155Z,0.00
2019-05-13T00:19:00.125Z,0.00
2019-05-13T00:20:00.094Z,0.00
2019-05-13T00:21:00.070Z,0.00
2019-05-13T00:22:00.034Z,0.00
2019-05-13T00:23:00.005Z,0.00
2019-05-13T00:23:59.973Z,0.00
2019-05-13T00:24:59.943Z,0.00
2019-05-13T00:25:59.911Z,0.00
2019-05-13T00:26:59.882Z,0.00
2019-05-13T00:27:59.852Z,0.00
2019-05-13T00:28:59.820Z,0.00
2019-05-13T00:29:59.789Z,0.00
2019-05-13T00:30:59.758Z,0.00
2019-05-13T00:31:59.731Z,0.00
2019-05-13T00:32:59.698Z,0.00
2019-05-13T00:33:59.666Z,0.00
2019-05-13T00:34:59.636Z,0.00
2019-05-13T00:35:59.606Z,0.00
2019-05-13T00:37:08.899Z,0.00
2019-05-13T00:37:59.543Z,0.00
2019-05-13T00:38:59.513Z,0.00
2019-05-13T00:39:59.482Z,0.00
2019-05-13T00:40:59.454Z,0.00
2019-05-13T00:41:59.423Z,0.00
2019-05-13T00:42:59.390Z,0.00
2019-05-13T00:43:59.360Z,0.00
2019-05-13T00:44:59.329Z,0.00
2019-05-13T00:45:59.300Z,0.00
2019-05-13T00:46:59.266Z,0.00
2019-05-13T00:47:59.237Z,0.00
2019-05-13T00:48:59.207Z,0.00
2019-05-13T00:49:59.176Z,0.00
2019-05-13T00:50:59.144Z,0.00
2019-05-13T00:51:59.115Z,0.00
2019-05-13T00:52:59.083Z,0.00
2019-05-13T00:53:59.052Z,0.00
2019-05-13T00:54:59.022Z,0.00
2019-05-13T00:55:58.995Z,0.00
2019-05-13T00:56:58.960Z,0.00
2019-05-13T00:57:58.929Z,0.00
2019-05-13T00:58:58.904Z,0.00
2019-05-13T00:59:58.870Z,0.00
2019-05-13T01:00:58.839Z,0.00
2019-05-13T01:01:58.810Z,0.00
2019-05-13T01:02:58.777Z,0.00
2019-05-13T01:03:58.752Z,0.00
2019-05-13T01:04:58.718Z,0.00
2019-05-13T01:05:58.685Z,0.00
2019-05-13T01:06:58.654Z,0.00
2019-05-13T01:07:58.627Z,0.00
2019-05-13T01:08:58.593Z,0.00
2019-05-13T01:09:58.561Z,0.00
2019-05-13T01:10:58.530Z,0.00
2019-05-13T01:11:58.499Z,0.00
2019-05-13T01:12:58.470Z,0.00
2019-05-13T01:13:58.462Z,0.00
2019-05-13T01:14:58.406Z,0.00
2019-05-13T01:15:58.376Z,0.00
2019-05-13T01:16:58.350Z,0.00
2019-05-13T01:17:58.315Z,0.00
2019-05-13T01:18:58.282Z,0.00
2019-05-13T01:19:58.251Z,0.00
2019-05-13T01:20:58.219Z,0.00
2019-05-13T01:21:58.189Z,0.00
2019-05-13T01:22:58.157Z,0.00
2019-05-13T01:23:58.127Z,0.00
2019-05-13T01:24:58.096Z,0.00
2019-05-13T01:25:58.065Z,0.00
2019-05-13T01:26:58.033Z,0.00
2019-05-13T01:27:58.008Z,0.00
2019-05-13T01:28:57.971Z,0.00
2019-05-13T01:29:57.940Z,0.00
2019-05-13T01:30:57.909Z,0.00
2019-05-13T01:31:57.877Z,0.00
2019-05-13T01:32:57.846Z,0.00
2019-05-13T01:33:57.816Z,0.00
2019-05-13T01:34:57.788Z,0.00
2019-05-13T01:35:57.753Z,0.00
2019-05-13T01:36:57.730Z,0.00
2019-05-13T01:37:57.689Z,0.00
2019-05-13T01:38:57.659Z,0.00
2019-05-13T01:39:57.630Z,0.00
2019-05-13T01:40:57.599Z,0.00
2019-05-13T01:41:57.566Z,0.00
2019-05-13T01:42:57.534Z,0.00
2019-05-13T01:43:57.503Z,0.00
2019-05-13T01:44:57.478Z,0.00
2019-05-13T01:45:57.441Z,0.00
2019-05-13T01:46:57.409Z,0.00
2019-05-13T01:47:57.377Z,0.00
2019-05-13T01:48:57.346Z,0.00
2019-05-13T01:49:57.316Z,0.00
2019-05-13T01:50:57.282Z,0.00
2019-05-13T01:51:57.255Z,0.00
2019-05-13T01:52:57.221Z,0.00
2019-05-13T01:53:57.189Z,0.00
2019-05-13T01:54:57.159Z,0.00
2019-05-13T01:55:57.127Z,0.00
2019-05-13T01:56:57.097Z,0.00
2019-05-13T01:57:57.063Z,0.00
2019-05-13T01:58:57.032Z,0.00
2019-05-13T01:59:57.001Z,0.00
2019-05-13T02:00:56.970Z,0.00
2019-05-13T02:01:56.946Z,0.00
2019-05-13T02:02:56.908Z,0.00
2019-05-13T02:03:56.878Z,0.00
2019-05-13T02:04:56.856Z,0.00
2019-05-13T02:05:56.815Z,0.00
2019-05-13T02:06:56.781Z,0.00
2019-05-13T02:08:00.435Z,0.00
2019-05-13T02:08:56.720Z,0.00
2019-05-13T02:09:56.687Z,0.00
2019-05-13T02:10:56.655Z,0.00
2019-05-13T02:11:56.627Z,0.00
2019-05-13T02:12:56.594Z,0.00
2019-05-13T02:13:56.562Z,0.00
2019-05-13T02:14:56.529Z,0.00
2019-05-13T02:15:56.498Z,0.00
2019-05-13T02:16:56.469Z,0.00
2019-05-13T02:17:56.435Z,0.00
2019-05-13T02:18:56.403Z,0.00
2019-05-13T02:19:56.372Z,0.00
2019-05-13T02:20:56.342Z,0.00
2019-05-13T02:21:56.310Z,0.00
2019-05-13T02:22:56.277Z,0.00
2019-05-13T02:23:56.246Z,0.00
2019-05-13T02:24:56.214Z,0.00
2019-05-13T02:25:56.180Z,0.00
2019-05-13T02:26:56.150Z,0.00
2019-05-13T02:27:56.118Z,0.00
2019-05-13T02:28:56.087Z,0.00
2019-05-13T02:29:56.053Z,0.00
2019-05-13T02:30:57.034Z,0.00
2019-05-13T02:31:56.541Z,0.00
2019-05-13T02:32:55.960Z,0.00
2019-05-13T02:33:55.927Z,0.00
2019-05-13T02:34:55.896Z,0.00
2019-05-13T02:35:55.867Z,0.00
2019-05-13T02:36:55.834Z,0.00
2019-05-13T02:38:14.722Z,0.00
2019-05-13T02:38:55.770Z,0.00
2019-05-13T02:39:55.738Z,0.00
2019-05-13T02:40:55.708Z,0.00
2019-05-13T02:41:55.673Z,0.00
2019-05-13T02:42:55.643Z,0.00
2019-05-13T02:43:55.612Z,0.00
2019-05-13T02:44:55.588Z,0.00
2019-05-13T02:45:55.550Z,0.00
2019-05-13T02:46:55.534Z,0.00
2019-05-13T02:47:55.491Z,0.00
2019-05-13T02:48:55.453Z,0.00
2019-05-13T02:49:55.419Z,0.00
2019-05-13T02:50:55.388Z,0.00
2019-05-13T02:51:55.384Z,0.00
2019-05-13T02:52:55.324Z,0.00
2019-05-13T02:53:55.296Z,0.00
2019-05-13T02:54:55.260Z,0.00
2019-05-13T02:55:55.229Z,0.00
2019-05-13T02:56:55.197Z,0.00
2019-05-13T02:57:55.163Z,0.00
2019-05-13T02:58:55.135Z,0.00
2019-05-13T02:59:55.127Z,0.00
2019-05-13T03:00:55.080Z,0.00
2019-05-13T03:01:55.040Z,0.00
2019-05-13T03:02:55.007Z,0.00
2019-05-13T03:03:54.973Z,0.00
2019-05-13T03:04:54.952Z,0.00
2019-05-13T03:05:54.908Z,0.00
2019-05-13T03:06:54.881Z,0.00
2019-05-13T03:07:54.846Z,5.63
2019-05-13T03:08:54.863Z,5.63
2019-05-13T03:09:54.786Z,5.63
2019-05-13T03:10:54.764Z,5.63
2019-05-13T03:11:54.730Z,5.63
2019-05-13T03:12:54.687Z,5.63
2019-05-13T03:13:54.655Z,5.63
2019-05-13T03:14:54.666Z,5.63
2019-05-13T03:15:54.591Z,11.25
2019-05-13T03:16:54.557Z,11.25
2019-05-13T03:17:54.525Z,11.25
2019-05-13T03:18:54.494Z,11.25
2019-05-13T03:19:54.462Z,11.25
2019-05-13T03:20:54.430Z,16.88
2019-05-13T03:21:54.403Z,16.88
2019-05-13T03:22:54.367Z,16.88
2019-05-13T03:23:54.344Z,16.88
2019-05-13T03:24:54.343Z,22.50
2019-05-13T03:25:54.270Z,22.50
2019-05-13T03:26:54.242Z,22.50
2019-05-13T03:27:54.504Z,22.50
2019-05-13T03:28:54.174Z,28.13
2019-05-13T03:29:54.146Z,28.13
2019-05-13T03:30:56.228Z,28.13
2019-05-13T03:31:56.135Z,33.75
2019-05-13T03:33:01.143Z,33.75
2019-05-13T03:33:56.122Z,33.75
2019-05-13T03:34:56.638Z,39.38
2019-05-13T03:35:56.356Z,39.38
2019-05-13T03:36:57.127Z,39.38
2019-05-13T03:37:53.885Z,45.00
2019-05-13T03:39:05.287Z,45.00
2019-05-13T03:39:53.823Z,45.00
2019-05-13T03:40:53.792Z,50.63
2019-05-13T03:41:53.783Z,50.63
2019-05-13T03:42:53.972Z,50.63
2019-05-13T03:43:53.695Z,56.25
2019-05-13T03:44:53.664Z,56.25
2019-05-13T03:45:53.632Z,61.88
2019-05-13T03:46:53.599Z,61.88
2019-05-13T03:47:53.567Z,61.88
2019-05-13T03:48:53.549Z,67.50
2019-05-13T03:49:53.503Z,67.50
2019-05-13T03:50:53.811Z,67.50
2019-05-13T03:51:53.636Z,73.13
2019-05-13T03:52:53.409Z,73.13
2019-05-13T03:53:53.851Z,78.75
2019-05-13T03:54:53.344Z,78.75
2019-05-13T03:55:54.051Z,78.75
2019-05-13T03:56:53.281Z,84.38
2019-05-13T03:57:53.588Z,84.38
2019-05-13T03:58:53.827Z,90.00
2019-05-13T03:59:53.188Z,90.00
2019-05-13T04:00:53.164Z,90.00
2019-05-13T04:01:53.123Z,95.63
2019-05-13T04:02:53.107Z,95.63
2019-05-13T04:03:53.138Z,101.25
2019-05-13T04:04:53.369Z,101.25
2019-05-13T04:05:53.174Z,101.25
2019-05-13T04:06:53.264Z,106.88
2019-05-13T04:07:52.944Z,106.88
2019-05-13T04:08:53.899Z,106.88
2019-05-13T04:09:52.869Z,112.50
2019-05-13T04:10:52.838Z,112.50
2019-05-13T04:11:52.934Z,118.13
2019-05-13T04:12:53.167Z,118.13
2019-05-13T04:13:52.993Z,118.13
2019-05-13T04:14:53.035Z,123.75
2019-05-13T04:15:53.235Z,123.75
2019-05-13T04:16:53.397Z,123.75
2019-05-13T04:17:53.369Z,129.38
2019-05-13T04:18:53.690Z,129.38
2019-05-13T04:19:53.067Z,129.38
2019-05-13T04:20:53.171Z,135.00
2019-05-13T04:21:52.947Z,135.00
2019-05-13T04:22:53.279Z,140.63
2019-05-13T04:23:53.306Z,140.63
2019-05-13T04:24:53.151Z,140.63
2019-05-13T04:25:53.635Z,146.25
2019-05-13T04:26:53.345Z,146.25
2019-05-13T04:27:52.529Z,146.25
2019-05-13T04:28:52.718Z,151.88
2019-05-13T04:29:52.864Z,151.88
2019-05-13T04:30:52.757Z,151.88
2019-05-13T04:31:53.209Z,151.88
2019-05-13T04:32:53.278Z,157.50
2019-05-13T04:33:53.139Z,157.50
2019-05-13T04:34:53.015Z,163.13
2019-05-13T04:35:53.015Z,157.50
2019-05-13T04:36:52.177Z,157.50
2019-05-13T04:37:52.803Z,163.13
2019-05-13T04:38:52.807Z,163.13
2019-05-13T04:39:56.149Z,163.13
2019-05-13T04:40:52.874Z,168.75
2019-05-13T04:41:52.875Z,168.75
2019-05-13T04:42:53.396Z,168.75
2019-05-13T04:43:54.083Z,174.38
2019-05-13T04:44:53.228Z,174.38
2019-05-13T04:45:52.617Z,174.38
2019-05-13T04:46:52.373Z,180.00
2019-05-13T04:47:52.862Z,180.00
2019-05-13T04:48:53.100Z,180.00
2019-05-13T04:49:53.410Z,180.00
2019-05-13T04:50:53.285Z,185.63
2019-05-13T04:51:52.346Z,185.63
2019-05-13T04:52:52.474Z,191.25
2019-05-13T04:53:56.109Z,191.25
2019-05-13T04:54:52.835Z,196.88
2019-05-13T04:55:52.665Z,202.50
2019-05-13T04:56:52.580Z,208.13
2019-05-13T04:57:53.266Z,208.13
2019-05-13T04:58:52.746Z,208.13
2019-05-13T04:59:54.854Z,202.50
2019-05-13T05:01:02.152Z,202.50
2019-05-13T05:01:57.828Z,208.13
2019-05-13T05:02:55.074Z,202.50
2019-05-13T05:03:53.092Z,208.13
2019-05-13T05:04:52.474Z,208.13
2019-05-13T05:05:52.670Z,208.13
2019-05-13T05:06:52.639Z,208.13
2019-05-13T05:07:52.533Z,213.75
2019-05-13T05:08:52.528Z,213.75
2019-05-13T05:10:29.345Z,219.38
2019-05-13T05:10:53.852Z,225.00
2019-05-13T05:11:52.914Z,236.25
2019-05-13T05:12:51.940Z,230.63
2019-05-13T05:13:53.080Z,241.88
2019-05-13T05:14:52.275Z,270.00
2019-05-13T05:15:52.259Z,275.63
2019-05-13T05:16:52.294Z,247.50
2019-05-13T05:17:52.218Z,247.50
2019-05-13T05:18:52.621Z,253.13
2019-05-13T05:19:52.467Z,320.63
2019-05-13T05:20:51.922Z,472.50
2019-05-13T05:21:52.726Z,630.00
2019-05-13T05:22:51.237Z,686.25
2019-05-13T05:23:51.533Z,708.75
2019-05-13T05:24:52.050Z,748.13
2019-05-13T05:25:52.201Z,765.00
2019-05-13T05:26:52.168Z,765.00
2019-05-13T05:27:51.437Z,765.00
2019-05-13T05:28:51.909Z,770.63
2019-05-13T05:29:51.618Z,753.75
2019-05-13T05:30:51.892Z,748.13
2019-05-13T05:31:51.956Z,742.50
2019-05-13T05:32:51.837Z,748.13
2019-05-13T05:33:51.645Z,793.13
2019-05-13T05:34:51.878Z,832.50
2019-05-13T05:35:52.055Z,860.63
2019-05-13T05:36:52.075Z,860.63
2019-05-13T05:37:52.238Z,849.38
2019-05-13T05:38:51.427Z,843.75
2019-05-13T05:39:51.261Z,849.38
2019-05-13T05:40:51.099Z,866.25
2019-05-13T05:41:51.421Z,770.63
2019-05-13T05:42:51.790Z,838.13
2019-05-13T05:43:52.170Z,826.88
2019-05-13T05:44:51.812Z,849.38
2019-05-13T05:45:51.265Z,905.63
2019-05-13T05:46:51.517Z,945.00
2019-05-13T05:47:51.135Z,967.50
2019-05-13T05:48:52.786Z,950.63
2019-05-13T05:49:51.628Z,939.38
2019-05-13T05:50:51.540Z,939.38
2019-05-13T05:51:51.521Z,945.00
2019-05-13T05:52:51.335Z,945.00
2019-05-13T05:53:51.680Z,956.25
2019-05-13T05:54:51.519Z,961.88
2019-05-13T05:55:51.806Z,956.25
2019-05-13T05:56:51.798Z,939.38
2019-05-13T05:57:52.114Z,950.63
2019-05-13T05:58:52.265Z,978.75
2019-05-13T05:59:51.728Z,1040.63
2019-05-13T06:00:51.961Z,1074.38
2019-05-13T06:01:52.375Z,1096.88
2019-05-13T06:02:52.960Z,1051.88
2019-05-13T06:03:49.582Z,1046.25
2019-05-13T06:04:51.859Z,990.00
2019-05-13T06:05:51.234Z,995.63
2019-05-13T06:06:52.076Z,973.13
2019-05-13T06:07:51.444Z,1046.25
2019-05-13T06:08:51.643Z,1057.50
2019-05-13T06:09:51.539Z,1085.63
2019-05-13T06:10:52.907Z,1080.00
2019-05-13T06:11:49.406Z,1057.50
2019-05-13T06:12:49.384Z,1096.88
2019-05-13T06:13:53.841Z,1108.13
2019-05-13T06:14:52.238Z,1153.13
2019-05-13T06:15:51.431Z,1198.13
2019-05-13T06:16:51.728Z,1231.88
2019-05-13T06:17:51.645Z,1254.38
2019-05-13T06:18:49.257Z,1248.75
2019-05-13T06:19:51.218Z,1237.50
2019-05-13T06:20:51.243Z,1198.13
2019-05-13T06:21:51.359Z,1170.00
2019-05-13T06:22:51.425Z,1181.25
2019-05-13T06:23:51.679Z,1226.25
2019-05-13T06:24:49.146Z,1271.25
2019-05-13T06:25:49.108Z,1321.88
2019-05-13T06:26:49.087Z,1361.25
2019-05-13T06:27:51.107Z,1344.38
2019-05-13T06:28:49.046Z,1316.25
2019-05-13T06:29:50.324Z,1299.38
2019-05-13T06:30:49.005Z,1293.75
2019-05-13T06:31:48.996Z,1299.38
2019-05-13T06:32:48.966Z,1321.88
2019-05-13T06:33:51.300Z,1350.00
2019-05-13T06:34:48.921Z,1378.13
2019-05-13T06:35:48.903Z,1383.75
2019-05-13T06:36:48.881Z,1383.75
2019-05-13T06:37:48.859Z,1366.88
2019-05-13T06:38:51.143Z,1355.63
2019-05-13T06:39:51.097Z,1355.63
2019-05-13T06:41:00.523Z,1355.63
2019-05-13T06:41:48.777Z,1372.50
2019-05-13T06:42:48.757Z,1389.38
2019-05-13T06:43:48.737Z,1423.13
2019-05-13T06:44:51.200Z,1456.88
2019-05-13T06:45:51.220Z,1485.00
2019-05-13T06:46:48.676Z,1479.38
2019-05-13T06:47:48.664Z,1473.75
2019-05-13T06:48:48.636Z,1479.38
2019-05-13T06:49:48.616Z,1473.75
2019-05-13T06:50:48.598Z,1473.75
2019-05-13T06:51:48.577Z,1507.50
2019-05-13T06:52:48.595Z,1535.63
2019-05-13T06:53:48.537Z,1541.25
2019-05-13T06:54:48.518Z,1563.75
2019-05-13T06:55:48.499Z,1580.63
2019-05-13T06:56:48.481Z,1575.00
2019-05-13T06:57:48.459Z,1558.13
2019-05-13T06:58:48.441Z,1507.50
2019-05-13T06:59:48.423Z,1428.75
2019-05-13T07:00:48.404Z,1350.00
2019-05-13T07:01:48.402Z,1299.38
2019-05-13T07:02:48.366Z,1265.63
2019-05-13T07:03:48.348Z,1271.25
2019-05-13T07:04:48.325Z,1316.25
2019-05-13T07:05:48.307Z,1400.63
2019-05-13T07:06:48.287Z,1485.00
2019-05-13T07:07:48.268Z,1546.88
2019-05-13T07:08:48.250Z,1608.75
2019-05-13T07:09:48.229Z,1659.38
2019-05-13T07:10:48.210Z,1670.63
2019-05-13T07:11:48.216Z,1665.00
2019-05-13T07:12:48.172Z,1653.75
2019-05-13T07:13:48.151Z,1642.50
2019-05-13T07:14:48.132Z,1636.88
2019-05-13T07:15:48.113Z,1648.13
2019-05-13T07:16:48.099Z,1687.50
2019-05-13T07:17:48.074Z,1710.00
2019-05-13T07:18:48.055Z,1738.13
2019-05-13T07:19:48.036Z,1766.25
2019-05-13T07:20:48.016Z,1788.75
2019-05-13T07:21:47.997Z,1811.25
2019-05-13T07:22:47.978Z,1816.88
2019-05-13T07:23:51.089Z,1816.88
2019-05-13T07:24:47.938Z,1794.38
2019-05-13T07:25:47.919Z,1788.75
2019-05-13T07:26:47.900Z,1777.50
2019-05-13T07:27:47.881Z,1777.50
2019-05-13T07:28:47.862Z,1777.50
2019-05-13T07:29:47.842Z,1805.63
2019-05-13T07:30:47.824Z,1828.13
2019-05-13T07:31:47.805Z,1845.00
2019-05-13T07:32:47.790Z,1873.13
2019-05-13T07:33:47.779Z,1895.63
2019-05-13T07:34:47.765Z,1901.25
2019-05-13T07:35:47.759Z,1912.50
2019-05-13T07:36:47.715Z,1906.88
2019-05-13T07:37:47.693Z,1878.75
2019-05-13T07:38:47.674Z,1861.88
2019-05-13T07:39:47.655Z,1867.50
2019-05-13T07:40:47.636Z,1878.75
2019-05-13T07:41:47.617Z,1884.38
2019-05-13T07:42:47.597Z,1884.38
2019-05-13T07:43:47.579Z,1940.63
2019-05-13T07:44:47.563Z,1980.00
2019-05-13T07:45:47.540Z,2013.75
2019-05-13T07:46:47.525Z,2019.38
2019-05-13T07:47:47.505Z,2025.00
2019-05-13T07:48:47.486Z,2019.38
2019-05-13T07:49:47.466Z,2019.38
2019-05-13T07:50:59.069Z,2013.75
2019-05-13T07:51:47.429Z,2025.00
2019-05-13T07:52:47.412Z,2047.50
2019-05-13T07:53:47.396Z,2047.50
2019-05-13T07:54:47.374Z,2047.50
2019-05-13T07:55:47.357Z,2058.75
2019-05-13T07:56:47.337Z,2086.88
2019-05-13T07:57:47.319Z,2098.13
2019-05-13T07:58:47.298Z,2098.13
2019-05-13T07:59:47.282Z,2115.00
2019-05-13T08:00:47.265Z,2137.50
2019-05-13T08:01:47.246Z,2143.13
2019-05-13T08:02:47.226Z,2148.75
2019-05-13T08:03:47.210Z,2148.75
2019-05-13T08:04:49.404Z,2165.63
2019-05-13T08:05:47.169Z,2182.50
2019-05-13T08:06:47.161Z,2205.00
2019-05-13T08:07:47.135Z,2188.13
2019-05-13T08:08:47.115Z,2176.88
2019-05-13T08:09:47.098Z,2148.75
2019-05-13T08:10:47.079Z,2148.75
2019-05-13T08:12:02.204Z,2131.88
2019-05-13T08:12:47.044Z,2137.50
2019-05-13T08:13:47.025Z,2143.13
2019-05-13T08:14:47.010Z,2143.13
2019-05-13T08:15:46.990Z,2148.75
2019-05-13T08:16:46.972Z,2171.25
2019-05-13T08:17:48.006Z,2199.38
2019-05-13T08:18:46.937Z,2182.50
2019-05-13T08:19:46.917Z,2176.88
2019-05-13T08:20:46.900Z,2188.13
2019-05-13T08:21:46.882Z,2221.88
2019-05-13T08:22:46.865Z,2238.75
2019-05-13T08:23:46.847Z,2227.50
2019-05-13T08:24:46.834Z,2227.50
2019-05-13T08:25:46.814Z,2233.13
2019-05-13T08:26:49.988Z,2266.88
2019-05-13T08:27:46.776Z,2272.50
2019-05-13T08:29:00.151Z,2266.88
2019-05-13T08:29:46.741Z,2300.63
2019-05-13T08:30:46.723Z,2317.50
2019-05-13T08:31:46.705Z,2351.25
2019-05-13T08:32:46.688Z,2373.75
2019-05-13T08:33:46.671Z,2356.88
2019-05-13T08:34:52.533Z,2345.63
2019-05-13T08:35:46.998Z,2345.63
2019-05-13T08:36:46.620Z,2340.00
2019-05-13T08:37:46.599Z,2300.63
2019-05-13T08:38:46.583Z,2295.00
2019-05-13T08:39:46.564Z,2283.75
2019-05-13T08:40:46.548Z,2289.38
2019-05-13T08:41:46.530Z,2311.88
2019-05-13T08:42:46.513Z,2323.13
2019-05-13T08:43:46.496Z,2351.25
2019-05-13T08:44:46.482Z,2373.75
2019-05-13T08:45:46.464Z,2385.00
2019-05-13T08:46:46.471Z,2413.13
2019-05-13T08:47:46.427Z,2430.00
2019-05-13T08:48:46.411Z,2424.38
2019-05-13T08:49:46.392Z,2430.00
2019-05-13T08:50:46.376Z,2441.25
2019-05-13T08:51:46.360Z,2441.25
2019-05-13T08:52:46.342Z,2435.63
2019-05-13T08:53:46.322Z,2446.88
2019-05-13T08:54:46.306Z,2435.63
2019-05-13T08:55:46.292Z,2452.50
2019-05-13T08:56:46.275Z,2441.25
2019-05-13T08:57:46.254Z,2446.88
2019-05-13T08:58:46.237Z,2441.25
2019-05-13T08:59:46.220Z,2463.75
2019-05-13T09:00:46.201Z,2463.75
2019-05-13T09:01:46.185Z,2401.88
2019-05-13T09:02:46.169Z,2328.75
2019-05-13T09:03:46.150Z,2255.63
2019-05-13T09:04:46.133Z,2210.63
2019-05-13T09:05:46.120Z,2171.25
2019-05-13T09:06:46.102Z,2143.13
2019-05-13T09:07:46.081Z,2165.63
2019-05-13T09:08:46.065Z,2261.25
2019-05-13T09:09:46.050Z,2351.25
2019-05-13T09:10:46.029Z,2418.75
2019-05-13T09:11:46.021Z,2486.25
2019-05-13T09:12:45.995Z,2520.00
2019-05-13T09:13:45.977Z,2553.75
2019-05-13T09:14:45.961Z,2565.00
2019-05-13T09:15:45.944Z,2570.63
2019-05-13T09:16:45.926Z,2565.00
2019-05-13T09:17:45.909Z,2548.13
2019-05-13T09:18:45.891Z,2531.25
2019-05-13T09:19:45.875Z,2536.88
2019-05-13T09:20:45.859Z,2548.13
2019-05-13T09:21:45.842Z,2542.50
2019-05-13T09:22:45.829Z,2548.13
2019-05-13T09:23:45.806Z,2536.88
2019-05-13T09:24:45.790Z,2542.50
2019-05-13T09:25:45.772Z,2548.13
2019-05-13T09:26:45.773Z,2525.63
2019-05-13T09:27:45.743Z,2491.88
2019-05-13T09:28:45.721Z,2480.63
2019-05-13T09:29:45.702Z,2503.13
2019-05-13T09:30:45.687Z,2508.75
2019-05-13T09:31:45.670Z,2480.63
2019-05-13T09:32:45.653Z,2458.13
2019-05-13T09:33:45.635Z,2446.88
2019-05-13T09:34:45.619Z,2452.50
2019-05-13T09:35:45.602Z,2452.50
2019-05-13T09:36:45.585Z,2469.38
2019-05-13T09:37:45.568Z,2475.00
2019-05-13T09:38:45.558Z,2486.25
2019-05-13T09:39:45.533Z,2486.25
2019-05-13T09:40:45.521Z,2508.75
2019-05-13T09:41:45.504Z,2525.63
2019-05-13T09:42:51.576Z,2587.50
2019-05-13T09:43:45.467Z,2677.50
2019-05-13T09:44:45.449Z,2716.88
2019-05-13T09:45:45.432Z,2767.50
2019-05-13T09:46:45.415Z,2739.38
2019-05-13T09:47:45.400Z,2655.00
2019-05-13T09:48:45.385Z,2745.00
2019-05-13T09:49:45.367Z,2745.00
2019-05-13T09:50:45.349Z,2728.13
2019-05-13T09:51:45.333Z,2778.75
2019-05-13T09:52:45.320Z,2390.63
2019-05-13T09:53:45.300Z,731.25
2019-05-13T09:54:45.283Z,2733.75
2019-05-13T09:55:45.271Z,2705.63
2019-05-13T09:56:45.250Z,2677.50
2019-05-13T09:57:45.237Z,2722.50
2019-05-13T09:58:45.218Z,2745.00
2019-05-13T09:59:45.199Z,2795.63
2019-05-13T10:00:45.183Z,838.13
2019-05-13T10:01:45.166Z,2840.63
2019-05-13T10:02:45.149Z,2874.38
2019-05-13T10:03:56.976Z,2846.25
2019-05-13T10:04:45.126Z,2795.63
2019-05-13T10:05:45.097Z,2812.50
2019-05-13T10:06:45.080Z,2880.00
2019-05-13T10:07:45.064Z,2070.00
2019-05-13T10:08:45.053Z,703.13
2019-05-13T10:09:48.273Z,2823.75
2019-05-13T10:10:45.012Z,2840.63
2019-05-13T10:11:45.001Z,2801.25
2019-05-13T10:12:44.979Z,1057.50
2019-05-13T10:13:44.964Z,2885.63
2019-05-13T10:14:44.946Z,2885.63
2019-05-13T10:15:48.737Z,2908.13
2019-05-13T10:16:44.912Z,928.13
2019-05-13T10:17:44.895Z,922.50
2019-05-13T10:18:44.878Z,2868.75
2019-05-13T10:19:44.862Z,877.50
2019-05-13T10:20:44.841Z,821.25
2019-05-13T10:21:44.824Z,2812.50
2019-05-13T10:22:44.806Z,2947.50
2019-05-13T10:23:44.789Z,2778.75
2019-05-13T10:24:44.772Z,2773.13
2019-05-13T10:25:44.750Z,2773.13
2019-05-13T10:26:44.733Z,2806.88
2019-05-13T10:27:44.717Z,2840.63
2019-05-13T10:28:44.697Z,2863.13
2019-05-13T10:29:44.679Z,2930.63
2019-05-13T10:30:44.664Z,2941.88
2019-05-13T10:31:44.647Z,596.25
2019-05-13T10:32:44.629Z,2593.13
2019-05-13T10:33:44.611Z,618.75
2019-05-13T10:34:44.590Z,585.00
2019-05-13T10:35:44.574Z,2795.63
2019-05-13T10:36:44.555Z,2767.50
2019-05-13T10:37:44.543Z,2790.00
2019-05-13T10:38:44.524Z,2778.75
2019-05-13T10:39:44.499Z,2795.63
2019-05-13T10:40:44.485Z,2806.88
2019-05-13T10:41:44.477Z,2784.38
2019-05-13T10:42:44.444Z,2773.13
2019-05-13T10:43:44.638Z,2716.88
2019-05-13T10:44:44.408Z,2733.75
2019-05-13T10:45:44.389Z,2716.88
2019-05-13T10:46:44.374Z,2716.88
2019-05-13T10:47:44.354Z,2705.63
2019-05-13T10:48:44.337Z,2700.00
2019-05-13T10:49:44.318Z,2705.63
2019-05-13T10:50:44.301Z,2739.38
2019-05-13T10:51:44.286Z,2739.38
2019-05-13T10:52:44.306Z,2773.13
2019-05-13T10:53:44.251Z,2773.13
2019-05-13T10:54:44.231Z,2784.38
2019-05-13T10:55:44.215Z,2784.38
2019-05-13T10:56:44.198Z,2790.00
2019-05-13T10:57:44.180Z,2790.00
2019-05-13T10:58:44.165Z,2773.13
2019-05-13T10:59:44.147Z,2801.25
2019-05-13T11:00:44.138Z,2818.13
2019-05-13T11:01:44.133Z,2823.75
2019-05-13T11:02:44.102Z,2874.38
2019-05-13T11:03:44.078Z,2981.25
2019-05-13T11:04:44.063Z,2289.38
2019-05-13T11:05:44.816Z,3026.25
2019-05-13T11:06:44.028Z,961.88
2019-05-13T11:07:44.011Z,1603.13
2019-05-13T11:08:44.005Z,2947.50
2019-05-13T11:09:43.978Z,2964.38
2019-05-13T11:10:43.966Z,2986.88
2019-05-13T11:11:43.945Z,2998.13
2019-05-13T11:12:43.927Z,2986.88
2019-05-13T11:13:54.347Z,2975.63
2019-05-13T11:14:46.645Z,2986.88
2019-05-13T11:15:45.314Z,2846.25
2019-05-13T11:16:43.859Z,3020.63
2019-05-13T11:17:43.843Z,714.38
2019-05-13T11:18:43.827Z,2851.88
2019-05-13T11:19:43.808Z,2857.50
2019-05-13T11:20:43.792Z,2851.88
2019-05-13T11:21:44.446Z,2840.63
2019-05-13T11:22:43.756Z,2818.13
2019-05-13T11:23:43.752Z,2784.38
2019-05-13T11:24:43.731Z,2767.50
2019-05-13T11:25:43.703Z,2784.38
2019-05-13T11:26:43.687Z,2812.50
2019-05-13T11:27:43.672Z,2863.13
2019-05-13T11:28:43.652Z,2846.25
2019-05-13T11:29:43.637Z,2812.50
2019-05-13T11:30:43.617Z,2823.75
2019-05-13T11:31:43.600Z,2823.75
2019-05-13T11:32:43.583Z,2840.63
2019-05-13T11:33:43.565Z,2835.00
2019-05-13T11:34:43.548Z,2835.00
2019-05-13T11:35:43.530Z,2851.88
2019-05-13T11:36:43.667Z,2868.75
2019-05-13T11:37:43.665Z,2941.88
2019-05-13T11:38:43.590Z,2958.75
2019-05-13T11:39:43.462Z,753.75
2019-05-13T11:40:43.445Z,1355.63
2019-05-13T11:41:43.428Z,663.75
2019-05-13T11:42:43.409Z,1248.75
2019-05-13T11:43:43.394Z,691.88
2019-05-13T11:44:43.376Z,562.50
2019-05-13T11:45:43.357Z,2210.63
2019-05-13T11:46:43.396Z,2694.38
2019-05-13T11:47:43.323Z,2728.13
2019-05-13T11:48:43.303Z,2750.63
2019-05-13T11:49:43.283Z,2790.00
2019-05-13T11:50:50.057Z,2829.38
2019-05-13T11:51:43.248Z,2812.50
2019-05-13T11:52:43.244Z,2767.50
2019-05-13T11:53:43.214Z,2773.13
2019-05-13T11:54:43.194Z,2632.50
2019-05-13T11:55:43.178Z,2058.75
2019-05-13T11:56:49.219Z,579.38
2019-05-13T11:57:44.395Z,511.88
2019-05-13T11:58:43.378Z,534.38
2019-05-13T11:59:43.322Z,2767.50
2019-05-13T12:00:43.096Z,2756.25
2019-05-13T12:01:43.090Z,2767.50
2019-05-13T12:02:50.245Z,2784.38
2019-05-13T12:03:43.633Z,2818.13
2019-05-13T12:04:43.910Z,2851.88
2019-05-13T12:05:42.998Z,2868.75
2019-05-13T12:06:48.563Z,2863.13
2019-05-13T12:07:42.961Z,2908.13
2019-05-13T12:08:50.434Z,928.13
2019-05-13T12:09:42.926Z,2835.00
2019-05-13T12:10:43.952Z,978.75
2019-05-13T12:11:42.891Z,781.88
2019-05-13T12:12:43.943Z,1423.13
2019-05-13T12:13:42.854Z,646.88
2019-05-13T12:15:05.069Z,579.38
2019-05-13T12:15:48.904Z,630.00
2019-05-13T12:16:42.800Z,2683.13
2019-05-13T12:17:43.131Z,2705.63
2019-05-13T12:18:43.853Z,2761.88
2019-05-13T12:19:42.745Z,2806.88
2019-05-13T12:20:42.930Z,2812.50
2019-05-13T12:21:46.430Z,2829.38
2019-05-13T12:22:42.871Z,697.50
2019-05-13T12:23:42.929Z,2688.75
2019-05-13T12:24:42.655Z,2615.63
2019-05-13T12:25:43.786Z,2587.50
2019-05-13T12:26:43.645Z,2581.88
2019-05-13T12:27:42.601Z,2632.50
2019-05-13T12:28:42.585Z,2683.13
2019-05-13T12:29:43.169Z,2767.50